createdAt,value
2018-11-28T00:00:40.116Z,5.92
2018-11-28T00:03:10.706Z,5.91
2018-11-28T00:05:41.458Z,5.94
2018-11-28T00:08:27.071Z,5.91
2018-11-28T00:10:57.983Z,5.91
2018-11-28T00:13:28.602Z,5.90
2018-11-28T00:15:59.558Z,5.86
2018-11-28T00:18:30.410Z,5.86
2018-11-28T00:21:01.317Z,5.86
2018-11-28T00:23:32.257Z,5.86
2018-11-28T00:26:02.907Z,5.85
2018-11-28T00:28:33.715Z,5.84
2018-11-28T00:31:04.634Z,5.83
2018-11-28T00:33:35.289Z,5.83
2018-11-28T00:36:06.454Z,5.82
2018-11-28T00:38:37.365Z,5.82
2018-11-28T00:41:08.381Z,5.80
2018-11-28T00:43:39.341Z,5.83
2018-11-28T00:46:10.205Z,5.83
2018-11-28T00:48:41.198Z,5.75
2018-11-28T00:51:12.108Z,5.73
2018-11-28T00:53:42.985Z,5.74
2018-11-28T00:56:13.951Z,5.72
2018-11-28T00:58:44.858Z,5.68
2018-11-28T01:01:15.822Z,5.61
2018-11-28T01:03:46.672Z,5.59
2018-11-28T01:06:17.613Z,5.49
2018-11-28T01:08:48.493Z,5.51
2018-11-28T01:11:19.975Z,5.49
2018-11-28T01:13:50.898Z,5.49
2018-11-28T01:16:21.553Z,5.48
2018-11-28T01:18:52.502Z,5.45
2018-11-28T01:21:23.474Z,5.44
2018-11-28T01:23:54.374Z,5.48
2018-11-28T01:26:25.218Z,5.51
2018-11-28T01:28:56.062Z,5.55
2018-11-28T01:31:26.972Z,5.55
2018-11-28T01:33:57.847Z,5.52
2018-11-28T01:36:28.706Z,5.50
2018-11-28T01:38:59.598Z,5.49
2018-11-28T01:41:30.512Z,5.47
2018-11-28T01:44:01.549Z,5.49
2018-11-28T01:46:33.216Z,5.49
2018-11-28T01:49:04.166Z,5.54
2018-11-28T01:51:35.146Z,5.54
2018-11-28T01:54:06.338Z,5.51
2018-11-28T01:56:44.098Z,5.53
2018-11-28T01:59:15.629Z,5.56
2018-11-28T02:01:46.938Z,5.53
2018-11-28T02:04:17.842Z,5.49
2018-11-28T02:06:48.803Z,5.45
2018-11-28T02:09:19.746Z,5.43
2018-11-28T02:11:50.986Z,5.39
2018-11-28T02:14:21.918Z,5.36
2018-11-28T02:16:53.174Z,5.29
2018-11-28T02:19:24.090Z,5.19
2018-11-28T02:21:55.056Z,5.12
2018-11-28T02:24:26.081Z,5.04
2018-11-28T02:26:57.451Z,4.99
2018-11-28T02:29:28.310Z,4.94
2018-11-28T02:31:59.219Z,4.91
2018-11-28T02:34:30.343Z,4.87
2018-11-28T02:37:01.702Z,4.86
2018-11-28T02:39:32.335Z,4.84
2018-11-28T02:42:03.931Z,4.76
2018-11-28T02:44:35.242Z,4.73
2018-11-28T02:47:06.458Z,4.69
2018-11-28T02:49:37.481Z,4.66
2018-11-28T02:52:08.334Z,4.63
2018-11-28T02:54:39.178Z,4.57
2018-11-28T02:57:10.117Z,4.52
2018-11-28T02:59:41.706Z,4.43
2018-11-28T03:02:13.337Z,4.34
2018-11-28T03:04:44.300Z,4.30
2018-11-28T03:07:15.622Z,4.25
2018-11-28T03:09:46.630Z,4.23
2018-11-28T03:12:17.524Z,4.26
2018-11-28T03:14:48.471Z,4.20
2018-11-28T03:17:25.381Z,4.19
2018-11-28T03:19:56.662Z,4.16
2018-11-28T03:22:27.508Z,4.12
2018-11-28T03:24:58.433Z,4.06
2018-11-28T03:27:29.340Z,4.08
2018-11-28T03:30:00.403Z,4.02
2018-11-28T03:32:31.239Z,3.98
2018-11-28T03:35:02.115Z,3.95
2018-11-28T03:37:33.150Z,3.89
2018-11-28T03:40:04.086Z,3.87
2018-11-28T03:42:35.017Z,3.87
2018-11-28T03:45:09.250Z,3.80
2018-11-28T03:47:40.594Z,3.78
2018-11-28T03:50:13.468Z,3.78
2018-11-28T03:52:44.859Z,3.77
2018-11-28T03:55:16.717Z,3.74
2018-11-28T03:57:48.563Z,3.75
2018-11-28T04:00:20.968Z,3.76
2018-11-28T04:02:52.025Z,3.76
2018-11-28T04:05:22.975Z,3.75
2018-11-28T04:07:54.902Z,3.75
2018-11-28T04:10:25.847Z,3.71
2018-11-28T04:12:56.889Z,3.71
2018-11-28T04:15:27.846Z,3.73
2018-11-28T04:17:58.658Z,3.72
2018-11-28T04:20:29.630Z,3.71
2018-11-28T04:23:00.517Z,3.68
2018-11-28T04:25:31.509Z,3.59
2018-11-28T04:28:02.533Z,3.54
2018-11-28T04:30:34.161Z,3.54
2018-11-28T04:33:05.430Z,3.54
2018-11-28T04:35:36.353Z,3.52
2018-11-28T04:38:07.614Z,3.57
2018-11-28T04:40:38.534Z,3.57
2018-11-28T04:43:09.894Z,3.55
2018-11-28T04:45:40.826Z,3.50
2018-11-28T04:48:11.786Z,3.52
2018-11-28T04:50:43.306Z,3.56
2018-11-28T04:53:14.159Z,3.51
2018-11-28T04:55:45.082Z,3.49
2018-11-28T04:58:15.934Z,3.50
2018-11-28T05:00:46.849Z,3.48
2018-11-28T05:03:17.716Z,3.48
2018-11-28T05:05:48.646Z,3.46
2018-11-28T05:08:19.612Z,3.50
2018-11-28T05:10:50.526Z,3.42
2018-11-28T05:13:21.450Z,3.40
2018-11-28T05:15:52.499Z,3.40
2018-11-28T05:18:23.431Z,3.40
2018-11-28T05:20:54.379Z,3.35
2018-11-28T05:23:25.319Z,3.34
2018-11-28T05:25:56.797Z,3.37
2018-11-28T05:28:28.026Z,3.40
2018-11-28T05:30:59.810Z,3.39
2018-11-28T05:33:30.721Z,3.31
2018-11-28T05:36:01.666Z,3.32
2018-11-28T05:38:32.534Z,3.32
2018-11-28T05:41:03.181Z,3.27
2018-11-28T05:43:34.671Z,3.28
2018-11-28T05:46:06.087Z,3.26
2018-11-28T05:48:37.053Z,3.26
2018-11-28T05:51:08.657Z,3.25
2018-11-28T05:53:39.791Z,3.12
2018-11-28T05:56:10.798Z,3.16
2018-11-28T05:58:41.658Z,3.16
2018-11-28T06:01:12.361Z,3.08
2018-11-28T06:03:43.331Z,3.00
2018-11-28T06:06:14.821Z,2.97
2018-11-28T06:08:45.885Z,3.01
2018-11-28T06:11:16.917Z,2.98
2018-11-28T06:13:47.969Z,2.98
2018-11-28T06:16:18.881Z,2.99
2018-11-28T06:18:49.785Z,2.99
2018-11-28T06:21:20.774Z,3.01
2018-11-28T06:23:51.774Z,3.02
2018-11-28T06:26:22.859Z,3.06
2018-11-28T06:28:53.802Z,3.03
2018-11-28T06:31:25.784Z,2.99
2018-11-28T06:33:56.630Z,3.01
2018-11-28T06:36:27.557Z,3.03
2018-11-28T06:38:58.462Z,3.01
2018-11-28T06:41:31.458Z,3.01
2018-11-28T06:44:02.372Z,2.99
2018-11-28T06:46:33.762Z,2.93
2018-11-28T06:49:04.755Z,2.90
2018-11-28T06:51:35.630Z,2.94
2018-11-28T06:54:06.828Z,2.95
2018-11-28T06:56:37.715Z,3.03
2018-11-28T06:59:08.613Z,2.97
2018-11-28T07:01:39.562Z,2.92
2018-11-28T07:04:10.498Z,2.94
2018-11-28T07:06:41.447Z,2.98
2018-11-28T07:09:12.366Z,2.97
2018-11-28T07:11:43.325Z,2.97
2018-11-28T07:14:14.272Z,2.97
2018-11-28T07:16:45.186Z,3.04
2018-11-28T07:19:16.183Z,3.05
2018-11-28T07:21:47.296Z,3.09
2018-11-28T07:24:18.229Z,3.14
2018-11-28T07:26:49.134Z,3.17
2018-11-28T07:29:20.030Z,3.26
2018-11-28T07:31:51.070Z,3.26
2018-11-28T07:34:22.370Z,3.31
2018-11-28T07:36:53.317Z,3.30
2018-11-28T07:39:24.158Z,3.37
2018-11-28T07:41:55.088Z,3.42
2018-11-28T07:44:26.455Z,3.51
2018-11-28T07:46:57.293Z,3.57
2018-11-28T07:49:29.041Z,3.59
2018-11-28T07:51:59.993Z,3.61
2018-11-28T07:54:31.012Z,3.61
2018-11-28T07:57:01.992Z,3.59
2018-11-28T07:59:33.099Z,3.69
2018-11-28T08:02:04.191Z,3.72
2018-11-28T08:04:35.125Z,3.85
2018-11-28T08:07:06.782Z,3.98
2018-11-28T08:09:37.902Z,4.07
2018-11-28T08:12:09.760Z,4.15
2018-11-28T08:14:40.619Z,4.25
2018-11-28T08:17:11.599Z,4.30
2018-11-28T08:19:42.526Z,4.39
2018-11-28T08:22:13.469Z,4.49
2018-11-28T08:24:44.298Z,4.59
2018-11-28T08:27:15.199Z,4.70
2018-11-28T08:29:46.126Z,4.77
2018-11-28T08:32:17.010Z,4.86
2018-11-28T08:34:47.967Z,4.98
2018-11-28T08:37:18.962Z,5.04
2018-11-28T08:39:49.810Z,5.04
2018-11-28T08:42:20.766Z,5.10
2018-11-28T08:44:51.793Z,5.13
2018-11-28T08:47:22.734Z,5.14
2018-11-28T08:49:53.667Z,5.17
2018-11-28T08:52:25.638Z,5.20
2018-11-28T08:54:56.494Z,5.26
2018-11-28T08:57:27.424Z,5.28
2018-11-28T08:59:58.395Z,5.37
2018-11-28T09:02:29.310Z,5.50
2018-11-28T09:05:00.234Z,5.59
2018-11-28T09:07:31.185Z,5.67
2018-11-28T09:10:02.158Z,5.80
2018-11-28T09:12:32.966Z,5.97
2018-11-28T09:15:03.767Z,6.12
2018-11-28T09:17:34.935Z,6.26
2018-11-28T09:20:10.198Z,6.39
2018-11-28T09:22:41.055Z,6.48
2018-11-28T09:25:15.598Z,6.62
2018-11-28T09:27:53.312Z,6.71
2018-11-28T09:30:24.646Z,6.79
2018-11-28T09:32:55.405Z,6.87
2018-11-28T09:35:27.126Z,6.98
2018-11-28T09:37:58.090Z,6.96
2018-11-28T09:40:29.315Z,6.92
2018-11-28T09:43:01.737Z,6.87
2018-11-28T09:45:32.613Z,6.82
2018-11-28T09:48:03.295Z,6.77
2018-11-28T09:50:33.897Z,6.80
2018-11-28T09:53:05.483Z,6.81
2018-11-28T09:55:36.078Z,6.83
2018-11-28T09:58:07.774Z,6.88
2018-11-28T10:00:39.503Z,6.98
2018-11-28T10:03:10.454Z,7.05
2018-11-28T10:05:41.065Z,7.00
2018-11-28T10:08:12.223Z,6.97
2018-11-28T10:10:42.865Z,6.95
2018-11-28T10:13:13.485Z,6.89
2018-11-28T10:15:44.677Z,6.80
2018-11-28T10:18:15.662Z,6.70
2018-11-28T10:20:46.942Z,6.71
2018-11-28T10:23:17.531Z,6.67
2018-11-28T10:25:48.487Z,6.72
2018-11-28T10:28:19.402Z,6.73
2018-11-28T10:30:50.455Z,6.77
2018-11-28T10:33:21.465Z,6.83
2018-11-28T10:35:52.201Z,6.92
2018-11-28T10:38:23.071Z,7.05
2018-11-28T10:40:54.203Z,7.11
2018-11-28T10:43:25.346Z,7.17
2018-11-28T10:45:56.202Z,7.16
2018-11-28T10:48:27.327Z,7.28
2018-11-28T10:50:57.959Z,7.32
2018-11-28T10:53:28.464Z,7.33
2018-11-28T10:56:00.330Z,7.32
2018-11-28T10:58:31.042Z,7.37
2018-11-28T11:01:07.088Z,7.35
2018-11-28T11:03:43.109Z,7.42
2018-11-28T11:06:19.360Z,7.34
2018-11-28T11:08:55.230Z,7.30
2018-11-28T11:11:26.690Z,7.31
2018-11-28T11:14:02.681Z,7.28
2018-11-28T11:16:34.066Z,7.37
2018-11-28T11:19:05.084Z,7.44
2018-11-28T11:21:35.823Z,7.40
2018-11-28T11:24:07.292Z,7.32
2018-11-28T11:26:38.209Z,7.31
2018-11-28T11:29:09.291Z,7.27
2018-11-28T11:31:40.378Z,7.25
2018-11-28T11:34:11.382Z,7.25
2018-11-28T11:36:42.062Z,7.20
2018-11-28T11:39:13.126Z,7.19
2018-11-28T11:41:44.020Z,7.20
2018-11-28T11:44:14.702Z,7.17
2018-11-28T11:46:45.511Z,7.14
2018-11-28T11:49:16.271Z,7.16
2018-11-28T11:51:47.318Z,7.17
2018-11-28T11:54:17.960Z,7.12
2018-11-28T11:56:48.879Z,7.13
2018-11-28T11:59:19.762Z,7.16
2018-11-28T12:01:54.742Z,7.20
2018-11-28T12:04:21.160Z,7.20
2018-11-28T12:06:52.013Z,7.16
2018-11-28T12:09:24.282Z,7.12
2018-11-28T12:11:55.027Z,7.16
2018-11-28T12:14:25.904Z,7.08
2018-11-28T12:16:57.144Z,7.14
2018-11-28T12:19:28.030Z,7.14
2018-11-28T12:21:58.999Z,7.21
2018-11-28T12:24:29.917Z,7.30
2018-11-28T12:27:00.665Z,7.32
2018-11-28T12:29:31.390Z,7.34
2018-11-28T12:32:02.016Z,7.36
2018-11-28T12:34:33.419Z,7.35
2018-11-28T12:37:03.749Z,7.43
2018-11-28T12:39:34.392Z,7.45
2018-11-28T12:42:05.038Z,7.51
2018-11-28T12:44:35.621Z,7.48
2018-11-28T12:47:06.925Z,7.49
2018-11-28T12:49:37.539Z,7.48
2018-11-28T12:52:08.770Z,7.47
2018-11-28T12:54:39.719Z,7.44
2018-11-28T12:57:10.446Z,7.51
2018-11-28T12:59:41.039Z,7.51
2018-11-28T13:02:11.910Z,7.53
2018-11-28T13:04:42.925Z,7.60
2018-11-28T13:07:13.581Z,7.61
2018-11-28T13:09:44.722Z,7.69
2018-11-28T13:12:16.406Z,7.69
2018-11-28T13:14:47.850Z,7.70
2018-11-28T13:17:18.503Z,7.72
2018-11-28T13:19:49.096Z,7.76
2018-11-28T13:22:19.789Z,7.72
2018-11-28T13:24:50.461Z,7.67
2018-11-28T13:27:22.541Z,7.56
2018-11-28T13:29:53.100Z,7.47
2018-11-28T13:32:23.718Z,7.39
2018-11-28T13:34:54.406Z,7.35
2018-11-28T13:37:25.353Z,7.32
2018-11-28T13:39:56.194Z,7.32
2018-11-28T13:42:26.818Z,7.33
2018-11-28T13:44:57.585Z,7.32
2018-11-28T13:47:28.138Z,7.32
2018-11-28T13:49:59.436Z,7.31
2018-11-28T13:52:30.077Z,7.23
2018-11-28T13:57:31.446Z,7.27
2018-11-28T14:00:02.086Z,7.23
2018-11-28T14:02:32.677Z,7.22
2018-11-28T14:05:03.331Z,7.19
2018-11-28T14:07:34.162Z,7.14
2018-11-28T14:10:08.485Z,7.09
2018-11-28T14:12:39.255Z,7.06
2018-11-28T14:15:19.546Z,7.02
2018-11-28T14:18:00.520Z,7.00
2018-11-28T14:20:31.374Z,7.01
2018-11-28T14:23:01.985Z,7.03
2018-11-28T14:25:32.688Z,6.99
2018-11-28T14:28:03.466Z,6.93
2018-11-28T14:30:34.121Z,6.95
2018-11-28T14:33:04.831Z,6.97
2018-11-28T14:35:35.800Z,6.93
2018-11-28T14:38:06.923Z,6.94
2018-11-28T14:40:37.542Z,6.88
2018-11-28T14:43:08.950Z,6.84
2018-11-28T14:45:39.991Z,6.78
2018-11-28T14:48:10.710Z,6.73
2018-11-28T14:50:41.482Z,6.73
2018-11-28T14:53:12.146Z,6.73
2018-11-28T14:55:43.414Z,6.73
2018-11-28T14:58:14.398Z,6.68
2018-11-28T15:00:45.362Z,6.66
2018-11-28T15:03:19.982Z,6.64
2018-11-28T15:06:56.694Z,6.61
2018-11-28T15:09:34.694Z,6.58
2018-11-28T15:12:11.760Z,6.57
2018-11-28T15:14:41.374Z,6.49
2018-11-28T15:17:12.080Z,6.52
2018-11-28T15:19:42.992Z,6.46
2018-11-28T15:22:13.810Z,6.42
2018-11-28T15:24:45.174Z,6.38
2018-11-28T15:27:15.946Z,6.32
2018-11-28T15:29:47.058Z,6.38
2018-11-28T15:32:18.337Z,6.37
2018-11-28T15:34:48.957Z,6.35
2018-11-28T15:37:19.605Z,6.34
2018-11-28T15:39:55.686Z,6.32
2018-11-28T15:42:20.997Z,6.35
2018-11-28T15:44:51.678Z,6.32
2018-11-28T15:47:22.426Z,6.29
2018-11-28T15:49:53.051Z,6.24
2018-11-28T15:52:24.175Z,6.30
2018-11-28T15:54:54.832Z,6.35
2018-11-28T15:57:25.714Z,6.32
2018-11-28T15:59:56.690Z,6.32
2018-11-28T16:02:27.650Z,6.32
2018-11-28T16:04:58.383Z,6.34
2018-11-28T16:07:28.963Z,6.30
2018-11-28T16:10:04.992Z,6.26
2018-11-28T16:12:36.406Z,6.26
2018-11-28T16:15:09.945Z,6.23
2018-11-28T16:17:40.283Z,6.21
2018-11-28T16:20:11.573Z,6.18
2018-11-28T16:22:42.574Z,6.12
2018-11-28T16:25:14.026Z,6.07
2018-11-28T16:27:45.037Z,6.08
2018-11-28T16:30:16.887Z,5.94
2018-11-28T16:32:48.247Z,5.92
2018-11-28T16:35:19.567Z,5.87
2018-11-28T16:37:50.715Z,5.83
2018-11-28T16:40:21.374Z,5.72
2018-11-28T16:42:52.618Z,5.62
2018-11-28T16:45:23.333Z,5.56
2018-11-28T16:47:54.682Z,5.49
2018-11-28T16:50:25.724Z,5.47
2018-11-28T16:52:57.017Z,5.50
2018-11-28T16:55:27.918Z,5.57
2018-11-28T16:57:58.875Z,5.57
2018-11-28T17:00:31.589Z,5.59
2018-11-28T17:03:02.482Z,5.54
2018-11-28T17:05:33.382Z,5.48
2018-11-28T17:08:05.666Z,5.47
2018-11-28T17:10:37.250Z,5.45
2018-11-28T17:13:08.887Z,5.32
2018-11-28T17:15:39.814Z,5.26
2018-11-28T17:18:10.534Z,5.28
2018-11-28T17:20:43.842Z,5.26
2018-11-28T17:23:14.711Z,5.17
2018-11-28T17:25:45.684Z,5.11
2018-11-28T17:28:16.614Z,5.11
2018-11-28T17:30:47.581Z,5.13
2018-11-28T17:33:18.538Z,5.13
2018-11-28T17:35:49.466Z,5.02
2018-11-28T17:38:20.395Z,4.96
2018-11-28T17:40:51.566Z,4.95
2018-11-28T17:43:21.945Z,4.91
2018-11-28T17:45:52.921Z,4.95
2018-11-28T17:48:23.942Z,4.88
2018-11-28T17:50:54.846Z,4.85
2018-11-28T17:53:25.806Z,4.82
2018-11-28T17:55:58.662Z,4.82
2018-11-28T17:58:29.632Z,4.83
2018-11-28T18:01:00.578Z,4.83
2018-11-28T18:03:31.458Z,4.83
2018-11-28T18:06:02.546Z,4.79
2018-11-28T18:08:33.518Z,4.77
2018-11-28T18:11:14.522Z,4.77
2018-11-28T18:13:45.767Z,4.79
2018-11-28T18:16:16.732Z,4.86
2018-11-28T18:18:47.414Z,4.85
2018-11-28T18:21:18.306Z,4.80
2018-11-28T18:23:49.282Z,4.86
2018-11-28T18:26:20.166Z,4.77
2018-11-28T18:28:51.131Z,4.78
2018-11-28T18:31:22.044Z,4.79
2018-11-28T18:33:52.948Z,4.69
2018-11-28T18:36:24.198Z,4.67
2018-11-28T18:38:55.191Z,4.64
2018-11-28T18:41:26.133Z,4.59
2018-11-28T18:43:56.966Z,4.51
2018-11-28T18:46:27.997Z,4.46
2018-11-28T18:48:58.927Z,4.47
2018-11-28T18:51:29.993Z,4.42
2018-11-28T18:54:00.990Z,4.41
2018-11-28T18:56:32.251Z,4.37
2018-11-28T18:59:03.137Z,4.34
2018-11-28T19:01:34.087Z,4.32
2018-11-28T19:04:05.122Z,4.30
2018-11-28T19:06:37.223Z,4.31
2018-11-28T19:09:14.316Z,4.29
2018-11-28T19:11:45.390Z,4.22
2018-11-28T19:14:17.448Z,4.18
2018-11-28T19:16:48.480Z,4.13
2018-11-28T19:19:19.530Z,4.10
2018-11-28T19:21:50.673Z,4.11
2018-11-28T19:24:21.646Z,4.13
2018-11-28T19:26:52.927Z,4.10
2018-11-28T19:29:23.874Z,4.14
2018-11-28T19:31:54.810Z,4.14
2018-11-28T19:34:25.939Z,4.09
2018-11-28T19:36:57.120Z,4.12
2018-11-28T19:39:28.189Z,4.08
2018-11-28T19:41:59.105Z,4.10
2018-11-28T19:44:29.728Z,4.15
2018-11-28T19:47:01.457Z,4.04
2018-11-28T19:49:32.301Z,4.05
2018-11-28T19:52:04.306Z,4.02
2018-11-28T19:54:36.159Z,4.05
2018-11-28T19:57:07.419Z,4.11
2018-11-28T19:59:38.283Z,4.16
2018-11-28T20:02:09.851Z,4.15
2018-11-28T20:04:40.782Z,4.18
2018-11-28T20:07:12.044Z,4.19
2018-11-28T20:09:43.088Z,4.10
2018-11-28T20:12:14.026Z,4.04
2018-11-28T20:14:44.962Z,4.02
2018-11-28T20:17:16.033Z,4.00
2018-11-28T20:19:47.058Z,4.05
2018-11-28T20:22:17.958Z,4.05
2018-11-28T20:24:48.983Z,4.10
2018-11-28T20:27:19.815Z,4.05
2018-11-28T20:29:51.505Z,4.04
2018-11-28T20:32:22.556Z,4.10
2018-11-28T20:34:53.514Z,4.13
2018-11-28T20:37:24.534Z,4.13
2018-11-28T20:39:55.558Z,4.14
2018-11-28T20:42:26.502Z,4.15
2018-11-28T20:44:57.479Z,4.19
2018-11-28T20:47:28.457Z,4.21
2018-11-28T20:49:59.338Z,4.24
2018-11-28T20:52:30.312Z,4.30
2018-11-28T20:55:02.369Z,4.33
2018-11-28T20:57:33.420Z,4.31
2018-11-28T21:00:07.574Z,4.29
2018-11-28T21:02:38.751Z,4.24
2018-11-28T21:05:10.101Z,4.30
2018-11-28T21:07:41.038Z,4.29
2018-11-28T21:10:18.850Z,4.31
2018-11-28T21:12:50.286Z,4.35
2018-11-28T21:15:21.318Z,4.37
2018-11-28T21:17:52.247Z,4.44
2018-11-28T21:20:23.919Z,4.49
2018-11-28T21:23:00.767Z,4.48
2018-11-28T21:25:31.646Z,4.48
2018-11-28T21:28:02.642Z,4.45
2018-11-28T21:30:33.603Z,4.45
2018-11-28T21:33:04.513Z,4.46
2018-11-28T21:35:37.734Z,4.45
2018-11-28T21:38:09.923Z,4.51
2018-11-28T21:40:41.035Z,4.55
2018-11-28T21:43:12.015Z,4.53
2018-11-28T21:45:43.148Z,4.56
2018-11-28T21:48:14.057Z,4.57
2018-11-28T21:50:45.166Z,4.56
2018-11-28T21:53:16.134Z,4.53
2018-11-28T21:55:46.917Z,4.61
2018-11-28T21:58:17.867Z,4.66
2018-11-28T22:00:48.944Z,4.72
2018-11-28T22:03:19.790Z,4.69
2018-11-28T22:05:50.748Z,4.72
2018-11-28T22:08:21.618Z,4.72
2018-11-28T22:10:52.510Z,4.76
2018-11-28T22:13:23.422Z,4.73
2018-11-28T22:15:54.313Z,4.74
2018-11-28T22:18:25.182Z,4.79
2018-11-28T22:20:56.101Z,4.84
2018-11-28T22:23:27.626Z,4.81
2018-11-28T22:25:58.704Z,4.81
2018-11-28T22:28:29.585Z,4.76
2018-11-28T22:31:00.487Z,4.83
2018-11-28T22:33:31.330Z,4.89
2018-11-28T22:36:03.022Z,4.94
2018-11-28T22:38:33.890Z,4.96
2018-11-28T22:41:04.754Z,4.96
2018-11-28T22:43:35.646Z,4.93
2018-11-28T22:46:07.095Z,4.94
2018-11-28T22:48:38.075Z,4.88
2018-11-28T22:51:08.927Z,4.86
2018-11-28T22:53:39.646Z,4.90
2018-11-28T22:56:10.560Z,4.90
2018-11-28T22:58:41.453Z,4.94
2018-11-28T23:01:12.361Z,4.95
2018-11-28T23:03:43.326Z,5.00
2018-11-28T23:06:14.229Z,5.04
2018-11-28T23:08:45.159Z,5.05
2018-11-28T23:11:16.090Z,5.06
2018-11-28T23:13:47.450Z,5.09
2018-11-28T23:16:18.456Z,5.06
2018-11-28T23:18:49.437Z,5.05
2018-11-28T23:21:20.369Z,5.03
2018-11-28T23:23:51.370Z,5.03
2018-11-28T23:26:22.343Z,5.10
2018-11-28T23:28:53.293Z,5.11
2018-11-28T23:31:24.345Z,5.01
2018-11-28T23:33:56.388Z,5.00
2018-11-28T23:36:27.289Z,5.02
2018-11-28T23:38:58.511Z,4.98
2018-11-28T23:41:29.643Z,4.93
2018-11-28T23:44:00.542Z,4.97
2018-11-28T23:46:32.415Z,4.94
2018-11-28T23:49:03.414Z,4.96
2018-11-28T23:51:35.819Z,4.97
2018-11-28T23:54:07.183Z,4.97
2018-11-28T23:56:38.045Z,4.96
2018-11-28T23:59:08.930Z,4.98
